Time;durP1;ratioP1;P1;durP2;ratioP2;P2;SDS_P1;SDS_P2;PMS_P1;PMS_P2;Temp;Humidity;BMP_temperature;BMP_pressure;BME280_temperature;BME280_humidity;BME280_pressure;Samples;Min_cycle;Max_cycle;Signal;HPM_P1;HPM_P2
2024/01/22 00:00:57;;;;;;;2.67;1.02;;;;;;;10.99;26.59;97800.34;6156183;23;20033;-27
2024/01/22 00:03:23;;;;;;;4.35;1.35;;;;;;;10.78;26.88;97790.34;6156579;23;20297;-27
2024/01/22 00:05:48;;;;;;;3.20;1.50;;;;;;;10.71;26.33;97795.03;6129872;23;20064;-27
2024/01/22 00:08:14;;;;;;;3.97;1.60;;;;;;;10.72;26.39;97796.56;6156466;23;20008;-27
2024/01/22 00:10:39;;;;;;;8.27;2.97;;;;;;;10.85;26.26;97797.69;6156160;23;20006;-27
2024/01/22 00:13:05;;;;;;;6.90;3.28;;;;;;;10.78;26.39;97792.28;6156549;23;20005;-27
2024/01/22 00:15:32;;;;;;;10.13;3.88;;;;;;;10.85;26.86;97799.63;6156357;23;20033;-27
2024/01/22 00:17:57;;;;;;;14.68;6.38;;;;;;;10.64;26.56;97795.03;6156081;23;20374;-27
2024/01/22 00:20:23;;;;;;;22.00;9.80;;;;;;;10.63;27.02;97799.69;6156085;23;20032;-27
2024/01/22 00:22:48;;;;;;;30.33;11.73;;;;;;;10.83;26.89;97801.94;6129995;23;20392;-27
2024/01/22 00:25:14;;;;;;;18.25;7.65;;;;;;;10.84;26.53;97803.50;6156377;23;20001;-28
2024/01/22 00:27:39;;;;;;;13.00;5.53;;;;;;;10.79;26.49;97801.97;6156245;23;20005;-27
2024/01/22 00:30:06;;;;;;;9.02;3.88;;;;;;;10.71;26.69;97803.16;6155971;23;20331;-27
2024/01/22 00:32:31;;;;;;;4.93;2.47;;;;;;;10.88;26.79;97794.16;6156390;23;20002;-27
2024/01/22 00:34:57;;;;;;;4.20;2.13;;;;;;;11.01;26.79;97800.69;6156256;23;20008;-27
2024/01/22 00:37:22;;;;;;;4.68;2.15;;;;;;;10.96;26.72;97806.56;6156079;23;20024;-27
2024/01/22 00:39:48;;;;;;;4.75;1.75;;;;;;;10.69;27.00;97805.50;6156179;23;20005;-27
2024/01/22 00:42:13;;;;;;;3.15;1.88;;;;;;;10.88;26.90;97802.31;6155348;23;20108;-27
2024/01/22 00:44:41;;;;;;;4.57;2.70;;;;;;;11.02;26.95;97810.38;6155882;23;20008;-27
2024/01/22 00:47:06;;;;;;;2.85;1.23;;;;;;;10.82;26.74;97806.59;6155945;23;20430;-27
2024/01/22 00:49:32;;;;;;;3.60;1.30;;;;;;;10.78;26.99;97805.84;6155969;23;20005;-27
2024/01/22 00:51:57;;;;;;;2.72;1.50;;;;;;;10.71;26.80;97803.16;6155828;23;20012;-27
2024/01/22 00:54:23;;;;;;;2.45;1.38;;;;;;;10.51;27.35;97808.25;6155571;23;20009;-27
2024/01/22 00:56:48;;;;;;;1.95;1.40;;;;;;;11.00;26.95;97823.56;6155991;23;20005;-27
2024/01/22 00:59:14;;;;;;;1.30;0.85;;;;;;;10.79;27.22;97818.25;6155612;23;20005;-27
2024/01/22 01:01:39;;;;;;;1.90;0.90;;;;;;;10.90;26.72;97821.69;6155600;23;20076;-27
2024/01/22 01:04:05;;;;;;;3.08;1.10;;;;;;;10.78;26.71;97811.25;6155999;23;20413;-27
2024/01/22 01:06:31;;;;;;;2.45;1.02;;;;;;;10.66;26.63;97803.56;6155917;23;20005;-27
2024/01/22 01:08:56;;;;;;;2.03;1.30;;;;;;;10.72;26.63;97802.78;6155679;23;20012;-27
2024/01/22 01:11:21;;;;;;;2.55;1.00;;;;;;;10.55;26.48;97809.03;6155997;23;20013;-27
2024/01/22 01:13:47;;;;;;;1.98;1.00;;;;;;;10.53;26.49;97805.16;6155381;23;20060;-27
2024/01/22 01:16:12;;;;;;;1.50;1.08;;;;;;;10.57;26.49;97812.13;6155970;23;20041;-27
2024/01/22 01:18:38;;;;;;;2.78;0.95;;;;;;;10.53;26.39;97808.63;6155694;23;20001;-27
2024/01/22 01:21:03;;;;;;;1.17;0.90;;;;;;;10.76;26.56;97813.59;6155710;23;20015;-27
2024/01/22 01:23:29;;;;;;;2.40;1.10;;;;;;;10.65;26.65;97802.78;6156116;23;20005;-27
2024/01/22 01:25:54;;;;;;;2.35;1.08;;;;;;;10.68;25.97;97806.66;6155415;23;20332;-27
2024/01/22 01:28:20;;;;;;;1.23;0.80;;;;;;;10.65;26.42;97808.22;6155478;23;20336;-27
2024/01/22 01:30:45;;;;;;;1.38;0.95;;;;;;;10.56;26.52;97804.38;6155845;23;20408;-27
2024/01/22 01:33:11;;;;;;;1.88;0.90;;;;;;;10.55;26.48;97791.97;6155537;23;20488;-27
2024/01/22 01:35:36;;;;;;;1.05;0.60;;;;;;;10.66;26.52;97803.56;6155765;23;20088;-27
2024/01/22 01:38:02;;;;;;;1.60;0.88;;;;;;;10.68;26.31;97801.22;6155702;23;20005;-27
2024/01/22 01:40:27;;;;;;;1.77;0.98;;;;;;;10.59;26.30;97809.03;6155599;23;20332;-27
2024/01/22 01:42:54;;;;;;;1.35;0.68;;;;;;;10.48;26.36;97808.28;6125997;23;20013;-27
2024/01/22 01:45:20;;;;;;;1.92;1.00;;;;;;;10.72;26.04;97812.84;6125988;23;20010;-27
2024/01/22 01:47:47;;;;;;;1.77;0.80;;;;;;;10.66;26.14;97812.47;6125989;23;20064;-27
2024/01/22 01:50:14;;;;;;;2.55;1.20;;;;;;;10.39;26.42;97803.25;6126117;23;20013;-27
2024/01/22 01:52:41;;;;;;;2.13;1.02;;;;;;;10.59;26.23;97803.59;6125765;23;20073;-27
2024/01/22 01:55:07;;;;;;;2.03;1.33;;;;;;;10.70;26.17;97793.47;6125773;23;20037;-27
2024/01/22 01:57:36;;;;;;;2.95;0.90;;;;;;;10.76;25.98;97791.88;6125300;23;20117;-27
2024/01/22 02:00:04;;;;;;;1.77;0.90;;;;;;;10.58;26.41;97796.63;6126094;23;20353;-27
2024/01/22 02:02:30;;;;;;;1.20;0.70;;;;;;;10.59;25.67;97792.75;6125907;23;19998;-27
2024/01/22 02:04:55;;;;;;;1.40;0.80;;;;;;;10.59;25.74;97790.03;6125879;23;20006;-27
2024/01/22 02:07:21;;;;;;;0.90;0.57;;;;;;;10.65;25.37;97786.50;6125842;23;20006;-27
2024/01/22 02:09:48;;;;;;;1.85;0.85;;;;;;;10.57;25.44;97782.28;6125750;23;20092;-27
2024/01/22 02:12:15;;;;;;;1.15;0.70;;;;;;;10.64;26.00;97786.91;6125669;23;20002;-27
2024/01/22 02:14:41;;;;;;;1.05;0.70;;;;;;;10.60;25.42;97783.44;6125586;23;20081;-27
2024/01/22 02:17:06;;;;;;;1.05;0.70;;;;;;;10.52;25.74;97792.75;6099749;23;20041;-27
2024/01/22 02:19:32;;;;;;;1.58;0.85;;;;;;;10.58;25.81;97791.19;6126008;23;20009;-27
2024/01/22 02:21:57;;;;;;;1.33;0.98;;;;;;;10.46;25.77;97786.19;6125327;23;20032;-27
2024/01/22 02:24:23;;;;;;;1.35;0.73;;;;;;;10.54;25.96;97790.41;6125447;23;20009;-27
2024/01/22 02:26:48;;;;;;;1.88;0.80;;;;;;;10.59;25.79;97782.66;6125675;23;20009;-27
2024/01/22 02:29:14;;;;;;;0.80;0.60;;;;;;;10.41;25.80;97773.81;6125350;23;20020;-27
2024/01/22 02:31:39;;;;;;;1.20;0.80;;;;;;;10.59;26.00;97781.88;6125386;23;20439;-27
2024/01/22 02:34:05;;;;;;;1.90;0.90;;;;;;;10.56;25.54;97785.38;6125432;23;20325;-27
2024/01/22 02:36:30;;;;;;;1.85;0.90;;;;;;;10.47;25.77;97796.66;6125787;23;20013;-27
2024/01/22 02:38:56;;;;;;;1.80;0.75;;;;;;;10.53;25.38;97783.44;6125630;23;20044;-27
2024/01/22 02:41:21;;;;;;;1.08;0.70;;;;;;;10.56;25.26;97785.38;6136208;23;20466;-27
2024/01/22 02:43:46;;;;;;;1.58;0.90;;;;;;;10.46;25.63;97791.63;6154906;23;20416;-27
2024/01/22 02:46:12;;;;;;;1.35;0.82;;;;;;;10.48;25.32;97795.50;6155057;23;20361;-27
2024/01/22 02:48:37;;;;;;;1.00;0.80;;;;;;;10.48;25.33;97802.84;6155123;23;20009;-27
2024/01/22 02:51:08;;;;;;;1.55;1.17;;;;;;;10.51;25.33;97802.06;6154792;23;20006;-27
2024/01/22 02:53:33;;;;;;;2.42;1.35;;;;;;;10.25;25.72;97801.38;6154700;23;20021;-27
2024/01/22 02:55:59;;;;;;;2.35;1.30;;;;;;;10.49;25.76;97802.47;6154901;23;20040;-27
2024/01/22 02:58:24;;;;;;;1.83;1.27;;;;;;;10.50;25.71;97800.53;6154618;23;20048;-27
2024/01/22 03:00:49;;;;;;;2.95;1.30;;;;;;;10.52;25.41;97796.25;6155060;23;20006;-27
2024/01/22 03:03:15;;;;;;;1.83;1.05;;;;;;;10.51;25.57;97791.97;6155003;23;20036;-27
2024/01/22 03:05:41;;;;;;;1.17;0.88;;;;;;;10.42;25.68;97788.91;6128070;23;20005;-27
2024/01/22 03:08:07;;;;;;;1.83;0.93;;;;;;;10.54;25.83;97801.28;6155742;23;20009;-27
2024/01/22 03:10:32;;;;;;;1.63;1.10;;;;;;;10.54;25.73;97802.03;6157026;23;20012;-27
2024/01/22 03:12:57;;;;;;;2.90;1.30;;;;;;;10.48;25.57;97798.22;6156610;23;20049;-27
2024/01/22 03:15:23;;;;;;;1.77;1.17;;;;;;;10.56;25.88;97798.94;6157049;23;20297;-27
2024/01/22 03:17:48;;;;;;;2.03;1.00;;;;;;;10.55;25.84;97802.81;6156794;23;20077;-27
2024/01/22 03:20:14;;;;;;;5.03;1.30;;;;;;;10.55;25.75;97798.16;6156528;23;20404;-27
2024/01/22 03:22:39;;;;;;;1.90;1.08;;;;;;;10.41;26.29;97790.84;6156863;23;20006;-27
2024/01/22 03:25:05;;;;;;;1.20;1.05;;;;;;;10.54;25.91;97798.56;6156971;23;20001;-27
2024/01/22 03:27:31;;;;;;;2.40;0.93;;;;;;;10.34;26.43;97799.00;6156748;23;20005;-27
2024/01/22 03:29:56;;;;;;;1.38;0.95;;;;;;;10.46;26.28;97799.75;6156646;23;20059;-27
2024/01/22 03:32:22;;;;;;;1.50;0.82;;;;;;;10.46;26.45;97797.03;6156687;23;20335;-27
2024/01/22 03:34:47;;;;;;;1.20;0.80;;;;;;;10.44;25.96;97802.84;6156702;23;20005;-27
2024/01/22 03:37:12;;;;;;;1.65;0.80;;;;;;;10.63;26.07;97796.22;6156362;23;20048;-27
2024/01/22 03:39:38;;;;;;;1.55;0.80;;;;;;;10.50;26.21;97800.53;6156778;23;20001;-27
2024/01/22 03:42:04;;;;;;;1.15;0.85;;;;;;;10.40;26.69;97802.84;6156648;23;20018;-27
2024/01/22 03:44:29;;;;;;;1.88;0.90;;;;;;;10.33;27.21;97792.03;6157369;23;20080;-27
2024/01/22 03:46:55;;;;;;;1.48;0.85;;;;;;;10.47;26.60;97796.66;6156710;23;20420;-27
2024/01/22 03:49:20;;;;;;;0.95;0.70;;;;;;;10.65;26.90;97799.28;6156226;23;20005;-27
2024/01/22 03:51:46;;;;;;;1.58;0.70;;;;;;;10.48;27.07;97798.22;6156720;23;20005;-27
2024/01/22 03:54:11;;;;;;;1.10;0.68;;;;;;;10.55;27.14;97800.09;6156429;23;20001;-27
2024/01/22 03:56:37;;;;;;;1.90;0.98;;;;;;;10.48;27.03;97795.50;6156334;23;20006;-27
2024/01/22 03:59:03;;;;;;;2.33;1.08;;;;;;;10.31;27.18;97794.38;6156396;23;20002;-27
2024/01/22 04:01:28;;;;;;;2.05;0.85;;;;;;;10.40;27.24;97794.72;6156204;23;20033;-27
2024/01/22 04:03:53;;;;;;;1.13;0.60;;;;;;;10.45;26.97;97793.56;6156459;23;20008;-27
2024/01/22 04:06:19;;;;;;;1.75;0.70;;;;;;;10.35;27.21;97784.28;6156529;23;20491;-27
2024/01/22 04:08:45;;;;;;;1.00;0.80;;;;;;;10.60;26.97;97788.88;6155988;23;20005;-27
2024/01/22 04:11:10;;;;;;;2.00;0.80;;;;;;;10.41;27.29;97782.72;6156298;23;20010;-27
2024/01/22 04:13:39;;;;;;;4.75;1.40;;;;;;;10.41;27.23;97782.72;6156369;23;20012;-27
2024/01/22 04:16:04;;;;;;;5.00;1.00;;;;;;;10.52;27.16;97782.69;6156373;23;20006;-27
2024/01/22 04:18:30;;;;;;;13.55;1.77;;;;;;;10.34;27.73;97785.47;6156487;23;20076;-27
2024/01/22 04:20:55;;;;;;;6.55;1.30;;;;;;;10.45;27.49;97774.56;6155644;23;20012;-27
2024/01/22 04:23:21;;;;;;;5.88;1.40;;;;;;;10.45;27.06;97780.00;6156227;23;20024;-27
2024/01/22 04:25:46;;;;;;;5.80;1.42;;;;;;;10.50;27.16;97778.84;6156351;23;20329;-27
2024/01/22 04:28:14;;;;;;;9.98;1.50;;;;;;;10.49;27.61;97780.00;6155906;23;20002;-27
2024/01/22 04:30:40;;;;;;;4.80;2.72;;;;;;;10.39;27.63;97782.31;6156124;23;20005;-27
2024/01/22 04:33:06;;;;;;;4.15;3.75;;;;;;;10.38;27.63;97778.09;6156195;23;20005;-27
2024/01/22 04:35:31;;;;;;;4.35;3.05;;;;;;;10.30;27.62;97775.78;6156149;23;20005;-27
2024/01/22 04:37:56;;;;;;;3.35;2.10;;;;;;;10.20;28.30;97777.34;6156157;23;20427;-27
2024/01/22 04:40:22;;;;;;;2.60;1.77;;;;;;;10.39;28.05;97782.31;6155881;23;20006;-27
2024/01/22 04:42:48;;;;;;;12.27;2.33;;;;;;;10.43;27.96;97776.91;6156040;23;20013;-27
2024/01/22 04:45:13;;;;;;;7.35;1.70;;;;;;;10.35;28.17;97781.59;6155919;23;20428;-27
2024/01/22 04:47:38;;;;;;;7.40;1.60;;;;;;;10.30;28.28;97786.63;6156202;23;20013;-27
2024/01/22 04:50:04;;;;;;;6.50;2.22;;;;;;;10.32;28.38;97784.28;6155863;23;20005;-27
2024/01/22 04:52:31;;;;;;;9.52;1.60;;;;;;;10.29;28.64;97785.06;6155931;23;20009;-27
2024/01/22 04:54:56;;;;;;;5.30;1.58;;;;;;;10.49;28.25;97790.84;6156241;23;20012;-27
2024/01/22 04:57:22;;;;;;;1.88;1.10;;;;;;;10.26;28.52;97786.63;6155591;23;20089;-27
2024/01/22 04:59:47;;;;;;;3.25;0.90;;;;;;;10.37;27.81;97795.53;6155943;23;20009;-27
2024/01/22 05:02:14;;;;;;;2.60;1.10;;;;;;;10.20;28.11;97785.47;6156214;23;20004;-27
2024/01/22 05:04:39;;;;;;;2.50;0.80;;;;;;;10.23;27.79;97792.84;6155593;23;20112;-27
2024/01/22 05:07:05;;;;;;;1.25;0.70;;;;;;;10.60;28.20;97789.63;6155918;23;20088;-27
2024/01/22 05:09:30;;;;;;;3.38;1.00;;;;;;;10.24;27.88;97794.41;6155742;23;20005;-27
2024/01/22 05:11:55;;;;;;;2.45;0.90;;;;;;;10.30;27.94;97800.94;6155519;23;20009;-27
2024/01/22 05:14:21;;;;;;;2.38;1.05;;;;;;;10.49;27.47;97809.84;6155857;23;20076;-27
2024/01/22 05:16:46;;;;;;;1.33;0.65;;;;;;;10.41;27.53;97809.84;6155720;23;20044;-27
2024/01/22 05:19:12;;;;;;;3.22;1.63;;;;;;;10.36;27.55;97806.75;6129501;23;20040;-27
2024/01/22 05:21:37;;;;;;;3.58;2.30;;;;;;;10.38;27.98;97810.63;6155896;23;20013;-27
2024/01/22 05:24:03;;;;;;;5.60;2.17;;;;;;;10.30;27.67;97814.50;6155223;23;20076;-27
2024/01/22 05:26:28;;;;;;;6.68;1.92;;;;;;;10.13;27.90;97815.28;6155691;23;20001;-27
2024/01/22 05:28:53;;;;;;;5.07;1.65;;;;;;;10.15;27.63;97823.78;6155381;23;20001;-27
2024/01/22 05:31:19;;;;;;;4.30;1.35;;;;;;;10.26;27.67;97824.56;6155526;23;20008;-27
2024/01/22 05:33:44;;;;;;;3.90;0.90;;;;;;;10.15;27.40;97828.44;6155687;23;20002;-27
2024/01/22 05:36:10;;;;;;;1.70;0.95;;;;;;;10.41;26.97;97826.09;6129217;23;20013;-27
2024/01/22 05:38:39;;;;;;;2.70;0.85;;;;;;;10.43;27.12;97826.50;6155535;23;20076;-27
2024/01/22 05:41:05;;;;;;;1.23;0.80;;;;;;;10.31;26.98;97835.03;6155429;23;20017;-27
2024/01/22 05:43:32;;;;;;;1.45;1.20;;;;;;;10.36;26.70;97842.00;6155786;23;20024;-27
2024/01/22 05:45:57;;;;;;;2.50;1.25;;;;;;;10.36;26.78;97833.88;6155355;23;20084;-27
2024/01/22 05:48:23;;;;;;;2.10;1.17;;;;;;;10.36;26.73;97833.88;6155414;23;20060;-27
2024/01/22 05:50:49;;;;;;;2.30;1.30;;;;;;;10.39;26.34;97833.06;6155748;23;20064;-27
2024/01/22 05:53:15;;;;;;;2.25;1.33;;;;;;;10.36;26.51;97817.59;6155304;23;20009;-27
2024/01/22 05:55:41;;;;;;;1.77;0.65;;;;;;;10.00;26.69;97808.72;6155242;23;20435;-27
2024/01/22 05:58:06;;;;;;;1.85;0.95;;;;;;;10.33;26.29;97810.25;6155614;23;20037;-27
2024/01/22 06:00:32;;;;;;;3.00;0.75;;;;;;;10.41;26.39;97820.69;6154958;23;20019;-27
2024/01/22 06:02:58;;;;;;;2.38;0.57;;;;;;;10.58;26.48;97823.75;6155339;23;20002;-27
2024/01/22 06:05:23;;;;;;;2.00;0.80;;;;;;;10.33;26.60;97831.94;6155171;23;20003;-27
2024/01/22 06:07:49;;;;;;;2.15;0.75;;;;;;;10.11;26.50;97844.72;6155081;23;20119;-27
2024/01/22 06:10:15;;;;;;;1.20;0.80;;;;;;;10.49;26.61;97854.00;6155582;23;20002;-27
2024/01/22 06:12:41;;;;;;;2.35;0.95;;;;;;;10.29;26.77;97850.91;6155227;23;20008;-27
2024/01/22 06:15:06;;;;;;;5.05;1.23;;;;;;;10.34;26.53;97855.97;6155365;23;20005;-27
2024/01/22 06:17:33;;;;;;;3.70;1.40;;;;;;;10.17;27.01;97859.44;6154850;23;20006;-27
2024/01/22 06:20:00;;;;;;;7.78;2.55;;;;;;;10.30;27.38;97846.28;6154929;23;20035;-27
2024/01/22 06:22:26;;;;;;;5.13;2.05;;;;;;;10.14;27.16;97843.94;6154985;23;19997;-27
2024/01/22 06:24:52;;;;;;;2.05;1.20;;;;;;;10.33;26.90;97848.22;6155055;23;20005;-27
2024/01/22 06:27:17;;;;;;;7.30;3.92;;;;;;;10.24;27.44;97843.19;6155017;23;20016;-27
2024/01/22 06:29:43;;;;;;;5.80;3.30;;;;;;;10.19;27.29;97840.88;6129158;23;20010;-27
2024/01/22 06:32:08;;;;;;;7.05;3.42;;;;;;;10.16;27.54;97841.59;6154861;23;20367;-27
2024/01/22 06:34:35;;;;;;;3.92;2.20;;;;;;;10.14;27.50;97854.78;6154846;23;20076;-27
2024/01/22 06:37:01;;;;;;;3.50;1.70;;;;;;;10.12;27.51;97851.69;6155101;23;20032;-27
2024/01/22 06:39:26;;;;;;;3.35;1.70;;;;;;;10.16;27.86;97841.59;6155163;23;20009;-27
2024/01/22 06:41:52;;;;;;;2.53;1.23;;;;;;;10.19;28.10;97851.72;6154846;23;20043;-27
2024/01/22 06:44:17;;;;;;;4.35;2.03;;;;;;;10.35;27.96;97873.78;6155045;23;20388;-27
2024/01/22 06:46:43;;;;;;;3.53;1.42;;;;;;;10.25;28.33;97866.44;6155291;23;20360;-27
2024/01/22 06:49:08;;;;;;;4.20;2.03;;;;;;;10.43;28.01;97877.25;6154843;23;20012;-27
2024/01/22 06:51:34;;;;;;;3.50;1.73;;;;;;;10.26;28.21;97878.81;6154936;23;20013;-27
2024/01/22 06:53:59;;;;;;;3.05;1.40;;;;;;;10.21;28.29;97881.16;6154995;23;20001;-27
2024/01/22 06:56:25;;;;;;;6.38;1.95;;;;;;;10.41;28.37;97883.06;6155169;23;20277;-27
2024/01/22 06:58:50;;;;;;;5.32;2.00;;;;;;;10.18;28.45;97881.88;6154912;23;20001;-27
2024/01/22 07:01:16;;;;;;;4.00;1.45;;;;;;;10.31;28.37;97883.06;6154900;23;20002;-27
2024/01/22 07:04:12;;;;;;;4.78;1.50;;;;;;;10.26;28.51;97878.06;6154639;23;20009;-27
2024/01/22 07:06:37;;;;;;;4.95;3.65;;;;;;;10.41;28.35;97885.78;6154843;23;20379;-27
2024/01/22 07:09:03;;;;;;;5.22;2.40;;;;;;;10.24;28.38;97897.41;6155010;23;20060;-27
2024/01/22 07:11:28;;;;;;;6.30;2.60;;;;;;;10.35;28.63;97902.84;6154865;23;20001;-27
2024/01/22 07:13:55;;;;;;;5.47;2.88;;;;;;;10.39;28.65;97893.50;6154380;23;20005;-27
2024/01/22 07:16:21;;;;;;;3.53;2.10;;;;;;;10.27;28.92;97902.03;6154918;23;20059;-27
2024/01/22 07:18:46;;;;;;;3.47;1.92;;;;;;;10.43;28.78;97904.38;6154667;23;20076;-27
2024/01/22 07:21:11;;;;;;;2.97;1.50;;;;;;;10.36;28.59;97907.88;6154759;23;20492;-27
2024/01/22 07:23:38;;;;;;;3.13;1.40;;;;;;;10.29;28.52;97916.00;6154967;23;20148;-27
2024/01/22 07:26:03;;;;;;;2.17;1.60;;;;;;;10.38;28.90;97908.25;6154521;23;20013;-27
2024/01/22 07:28:29;;;;;;;2.08;1.15;;;;;;;10.27;28.96;97907.47;6154780;23;20005;-27
2024/01/22 07:30:54;;;;;;;2.35;1.33;;;;;;;10.34;29.01;97912.91;6154513;23;20372;-27
2024/01/22 07:33:19;;;;;;;1.67;1.20;;;;;;;10.36;29.45;97926.09;6154723;23;20464;-27
2024/01/22 07:35:45;;;;;;;4.10;1.30;;;;;;;10.41;29.73;97917.53;6154770;23;20482;-27
2024/01/22 07:38:10;;;;;;;2.22;1.20;;;;;;;10.47;29.53;97912.50;6154250;23;20496;-27
2024/01/22 07:40:36;;;;;;;2.65;1.20;;;;;;;10.48;29.78;97924.91;6154490;23;20005;-27
2024/01/22 07:43:01;;;;;;;2.63;1.27;;;;;;;10.28;30.41;97936.13;6155217;23;20057;-27
2024/01/22 07:45:27;;;;;;;2.30;1.20;;;;;;;10.39;30.40;97920.63;6154282;23;20010;-27
2024/01/22 07:47:52;;;;;;;2.00;1.42;;;;;;;10.43;30.74;97932.25;6155166;23;20419;-27
2024/01/22 07:50:18;;;;;;;3.35;1.80;;;;;;;10.50;30.80;97939.63;6154422;23;20015;-27
2024/01/22 07:52:44;;;;;;;3.13;1.70;;;;;;;10.62;30.76;97935.75;6154515;23;20005;-27
2024/01/22 07:55:12;;;;;;;4.97;1.75;;;;;;;10.66;30.77;97934.56;6156228;23;20006;-27
2024/01/22 07:57:38;;;;;;;3.60;1.90;;;;;;;10.43;31.13;97939.63;6156118;23;20139;-27
2024/01/22 08:00:11;;;;;;;4.25;2.63;;;;;;;10.51;31.01;97937.69;6156450;23;20021;-27
2024/01/22 08:02:40;;;;;;;5.70;2.38;;;;;;;10.50;31.19;97941.56;6156716;23;19997;-27
2024/01/22 08:05:06;;;;;;;3.90;1.70;;;;;;;10.54;31.19;97942.34;6156730;23;20012;-27
2024/01/22 08:07:33;;;;;;;3.40;1.83;;;;;;;10.28;31.82;97946.97;6156251;23;20001;-27
2024/01/22 08:09:58;;;;;;;5.93;2.97;;;;;;;10.24;32.04;97945.44;6156616;23;20125;-27
2024/01/22 08:12:24;;;;;;;3.25;1.67;;;;;;;10.51;31.67;97953.97;6129920;23;20025;-27
2024/01/22 08:14:49;;;;;;;7.47;2.28;;;;;;;10.61;31.34;97950.47;6156086;23;20009;-27
2024/01/22 08:17:15;;;;;;;5.13;3.03;;;;;;;10.65;31.60;97953.94;6156345;23;20008;-27
2024/01/22 08:19:40;;;;;;;7.70;4.38;;;;;;;10.66;31.57;97960.91;6156470;23;20012;-27
2024/01/22 08:22:05;;;;;;;7.80;5.30;;;;;;;10.48;32.07;97965.59;6155949;23;20005;-27
2024/01/22 08:24:31;;;;;;;7.47;5.35;;;;;;;10.69;31.87;97958.22;6156231;23;20015;-27
2024/01/22 08:26:57;;;;;;;8.75;4.47;;;;;;;10.73;32.03;97960.94;6156000;23;20029;-27
2024/01/22 08:29:22;;;;;;;8.02;4.30;;;;;;;10.74;32.47;97959.75;6130402;23;20400;-27
2024/01/22 08:31:48;;;;;;;5.88;3.58;;;;;;;10.80;32.29;97952.75;6156777;23;20033;-27
2024/01/22 08:34:13;;;;;;;5.00;2.53;;;;;;;10.58;32.70;97956.69;6155722;23;20413;-27
2024/01/22 08:36:39;;;;;;;4.63;2.65;;;;;;;10.62;32.38;97960.16;6156269;23;20331;-27
2024/01/22 08:39:05;;;;;;;3.35;1.95;;;;;;;10.71;32.30;97957.81;6129675;23;20005;-27
2024/01/22 08:41:30;;;;;;;5.68;2.10;;;;;;;10.79;31.99;97948.50;6155987;23;20027;-27
2024/01/22 08:43:59;;;;;;;2.65;1.80;;;;;;;10.58;32.43;97960.16;6155965;23;20052;-27
2024/01/22 08:46:24;;;;;;;4.20;1.70;;;;;;;10.46;32.90;97959.78;6155979;23;20068;-27
2024/01/22 08:48:50;;;;;;;5.32;2.08;;;;;;;10.68;32.99;97950.47;6156295;23;20005;-27
2024/01/22 08:51:15;;;;;;;3.13;1.95;;;;;;;10.86;32.36;97956.66;6156186;23;20132;-27
2024/01/22 08:53:41;;;;;;;4.55;1.85;;;;;;;10.78;32.78;97964.00;6155809;23;20029;-27
2024/01/22 08:56:06;;;;;;;2.75;1.98;;;;;;;10.74;32.99;97957.84;6155936;23;20085;-27
2024/01/22 08:58:32;;;;;;;2.72;1.70;;;;;;;10.67;33.47;97968.66;6155680;23;20001;-27
2024/01/22 09:00:58;;;;;;;3.17;1.83;;;;;;;10.68;33.45;97964.03;6155983;23;20016;-27
2024/01/22 09:03:24;;;;;;;6.50;2.58;;;;;;;10.77;33.22;97961.69;6155876;23;20008;-27
2024/01/22 09:05:50;;;;;;;4.03;2.20;;;;;;;10.74;33.31;97962.47;6155348;23;20010;-27
2024/01/22 09:08:16;;;;;;;3.03;2.00;;;;;;;11.04;33.21;97964.72;6156025;23;20005;-27
2024/01/22 09:10:43;;;;;;;5.55;1.95;;;;;;;11.01;33.83;97960.84;6155759;23;20424;-27
2024/01/22 09:13:09;;;;;;;5.85;2.20;;;;;;;10.92;33.62;97957.78;6155870;23;20017;-27
2024/01/22 09:15:35;;;;;;;3.78;1.75;;;;;;;11.23;33.89;97955.38;6155655;23;20006;-27
2024/01/22 09:18:01;;;;;;;3.08;1.60;;;;;;;11.36;32.94;97951.84;6155582;23;20339;-27
2024/01/22 09:20:26;;;;;;;5.05;1.80;;;;;;;11.71;32.69;97953.63;6155710;23;20060;-27
2024/01/22 09:22:52;;;;;;;2.42;1.50;;;;;;;12.13;31.47;97958.03;6155555;23;19997;-27
2024/01/22 09:25:19;;;;;;;4.05;1.52;;;;;;;12.73;30.58;97953.31;6156253;23;20008;-27
2024/01/22 09:27:46;;;;;;;3.28;1.50;;;;;;;13.18;29.64;97956.75;6155765;23;20424;-27
2024/01/22 09:30:12;;;;;;;5.30;1.80;;;;;;;13.87;29.11;97956.28;6155466;23;20001;-27
2024/01/22 09:32:38;;;;;;;2.97;1.38;;;;;;;13.87;28.92;97960.94;6155441;23;20381;-27
2024/01/22 09:35:04;;;;;;;3.47;1.35;;;;;;;14.57;28.34;97953.69;6155627;23;20009;-27
2024/01/22 09:37:29;;;;;;;1.75;1.33;;;;;;;15.15;27.65;97948.75;6155436;23;20005;-27
2024/01/22 09:39:55;;;;;;;3.50;1.55;;;;;;;14.60;28.61;97952.84;6155759;23;20005;-27
2024/01/22 09:42:20;;;;;;;3.72;1.58;;;;;;;15.28;27.78;97940.69;6155126;23;20018;-28
2024/01/22 09:44:46;;;;;;;2.20;1.40;;;;;;;14.97;27.99;97957.25;6156107;23;20009;-27
2024/01/22 09:47:12;;;;;;;5.55;1.52;;;;;;;15.24;27.91;97946.22;6155462;23;20101;-27
2024/01/22 09:49:38;;;;;;;3.35;1.50;;;;;;;15.40;28.13;97949.03;6155605;23;20037;-27
2024/01/22 09:52:04;;;;;;;3.17;1.60;;;;;;;15.46;28.04;97946.56;6155196;23;20025;-27
2024/01/22 09:54:30;;;;;;;4.85;1.90;;;;;;;15.01;29.03;97954.47;6155199;23;20005;-28
2024/01/22 09:56:57;;;;;;;2.45;1.67;;;;;;;15.01;28.14;97949.78;6155374;23;20383;-27
2024/01/22 09:59:28;;;;;;;4.03;1.88;;;;;;;14.90;28.67;97943.75;6155111;23;20001;-27
2024/01/22 10:01:55;;;;;;;2.88;1.70;;;;;;;14.93;29.07;97947.59;6155585;23;20005;-27
2024/01/22 10:04:23;;;;;;;4.55;1.80;;;;;;;15.02;29.37;97934.16;6155313;23;20013;-27
2024/01/22 10:06:49;;;;;;;2.33;1.65;;;;;;;14.76;29.43;97937.75;6154937;23;20009;-27
2024/01/22 10:09:15;;;;;;;3.17;1.67;;;;;;;14.74;29.78;97929.97;6155218;23;20080;-27
2024/01/22 10:11:47;;;;;;;3.72;1.88;;;;;;;14.47;30.41;97934.72;6155271;23;20025;-27
2024/01/22 10:14:13;;;;;;;2.97;1.40;;;;;;;14.14;31.24;97930.94;6155444;23;20436;-27
2024/01/22 10:16:38;;;;;;;3.67;1.80;;;;;;;13.94;31.47;97928.13;6155132;23;20060;-27
2024/01/22 10:19:07;;;;;;;3.40;1.80;;;;;;;13.92;31.59;97925.81;6154466;23;20479;-27
2024/01/22 10:21:34;;;;;;;4.40;1.90;;;;;;;13.59;31.98;97929.41;6155391;23;20009;-27
2024/01/22 10:24:02;;;;;;;3.45;1.77;;;;;;;13.32;32.37;97925.84;6154732;23;20071;-27
2024/01/22 10:26:28;;;;;;;3.97;1.50;;;;;;;13.16;32.60;97920.97;6155035;23;20008;-27
2024/01/22 10:29:10;;;;;;;2.67;1.77;;;;;;;13.30;32.94;97928.97;6154973;23;20076;-27
2024/01/22 10:31:57;;;;;;;3.28;1.83;;;;;;;13.07;33.32;97921.44;6129092;23;20068;-27
2024/01/22 10:34:46;;;;;;;2.83;1.95;;;;;;;12.94;33.96;97912.25;6155286;23;20005;-27
2024/01/22 10:37:13;;;;;;;3.35;1.60;;;;;;;12.78;34.18;97912.00;6155048;23;20012;-27
2024/01/22 10:39:41;;;;;;;2.95;1.70;;;;;;;12.66;34.78;97920.69;6154947;23;20005;-27
2024/01/22 10:42:11;;;;;;;2.22;1.75;;;;;;;12.67;35.26;97922.25;6154578;23;20506;-27
2024/01/22 10:44:38;;;;;;;3.92;1.50;;;;;;;12.50;35.57;97926.66;6155301;23;20006;-27
2024/01/22 10:47:04;;;;;;;2.30;1.77;;;;;;;12.61;35.15;97921.16;6155020;23;20002;-27
2024/01/22 10:49:31;;;;;;;3.28;1.83;;;;;;;12.46;36.17;97915.84;6154802;23;20051;-26
2024/01/22 10:52:00;;;;;;;2.30;1.50;;;;;;;12.27;36.61;97907.44;6155178;23;20025;-27
2024/01/22 10:54:30;;;;;;;9.00;1.65;;;;;;;12.29;36.71;97894.97;6154723;23;20005;-27
2024/01/22 10:57:05;;;;;;;7.38;1.90;;;;;;;12.33;36.83;97893.00;6155248;23;20001;-27
2024/01/22 10:59:38;;;;;;;4.57;2.17;;;;;;;12.08;36.33;97903.31;6154913;23;20081;-27
2024/01/22 11:02:06;;;;;;;4.88;2.53;;;;;;;12.03;36.42;97904.50;6154897;23;20006;-27
2024/01/22 11:04:45;;;;;;;6.45;1.90;;;;;;;12.14;36.56;97898.97;6154923;23;20435;-27
2024/01/22 11:07:11;;;;;;;2.70;1.75;;;;;;;11.99;37.09;97903.75;6154928;23;20009;-27
2024/01/22 11:09:38;;;;;;;3.80;1.88;;;;;;;12.06;36.29;97902.94;6154606;23;20012;-27
2024/01/22 11:12:14;;;;;;;3.17;1.75;;;;;;;12.10;36.92;97892.81;6154863;23;20008;-27
2024/01/22 11:14:41;;;;;;;3.53;2.05;;;;;;;11.93;36.92;97894.50;6154773;23;20447;-27
2024/01/22 11:17:09;;;;;;;3.35;1.88;;;;;;;12.09;37.07;97885.84;6154964;23;20005;-27
2024/01/22 11:19:35;;;;;;;2.95;1.75;;;;;;;12.04;36.38;97876.16;6155021;23;20008;-27
2024/01/22 11:22:21;;;;;;;1.95;1.70;;;;;;;11.96;37.75;97876.59;6154403;23;20037;-27
2024/01/22 11:25:09;;;;;;;3.28;1.52;;;;;;;11.97;37.46;97870.00;6154857;23;20005;-27
2024/01/22 11:27:42;;;;;;;5.68;1.60;;;;;;;11.94;36.08;97868.06;6155214;23;20005;-27
2024/01/22 11:30:20;;;;;;;;;;;;;;;11.93;37.48;97861.88;6156635;23;20045;-27